Wetterdaten: Woche 20.03.17 - 26.03.17 (KW12)
Datum Zeit Temp. A. Feuchte A. Luftdruck Regen Wind Richtung Taupunkt Windchill Windben
20.03.2017 00:00 14,3 C 73 % 1007,2 hPa 0,0 l/m 13,2 km/h N 9,6 C 11,1 C 35,0 km/h
20.03.2017 01:00 14,3 C 73 % 1007,3 hPa 0,0 l/m 13,0 km/h N 9,4 C 11,1 C 35,0 km/h
20.03.2017 02:00 14,3 C 72 % 1007,8 hPa 0,0 l/m 10,7 km/h N 9,2 C 12,0 C 29,4 km/h
20.03.2017 03:00 13,9 C 73 % 1008,2 hPa 0,0 l/m 7,5 km/h N 9,1 C 13,2 C 20,9 km/h
20.03.2017 04:00 13,6 C 73 % 1008,8 hPa 0,0 l/m 4,6 km/h N 8,8 C 13,6 C 16,1 km/h
20.03.2017 05:00 12,9 C 75 % 1009,5 hPa 0,0 l/m 5,1 km/h N 8,6 C 12,7 C 16,5 km/h
20.03.2017 06:00 12,5 C 75 % 1010,2 hPa 0,0 l/m 1,9 km/h N 8,2 C 12,5 C 9,7 km/h
20.03.2017 07:00 12,5 C 71 % 1010,8 hPa 0,0 l/m 6,3 km/h N 7,3 C 12,3 C 18,9 km/h
20.03.2017 08:00 12,9 C 68 % 1011,1 hPa 0,0 l/m 6,3 km/h N 7,1 C 12,5 C 18,5 km/h
20.03.2017 09:00 13,4 C 67 % 1011,3 hPa 0,0 l/m 8,2 km/h N 7,3 C 12,4 C 25,7 km/h
20.03.2017 10:00 14,3 C 63 % 1011,3 hPa 0,0 l/m 9,9 km/h N 7,4 C 12,3 C 24,9 km/h
20.03.2017 11:00 15,1 C 62 % 1011,3 hPa 0,0 l/m 9,3 km/h N 7,8 C 13,5 C 24,9 km/h
20.03.2017 12:00 15,2 C 62 % 1011,1 hPa 0,0 l/m 10,3 km/h N 7,9 C 13,2 C 26,1 km/h
20.03.2017 13:00 16,3 C 58 % 1010,8 hPa 0,0 l/m 12,2 km/h N 8,1 C 13,8 C 31,8 km/h
20.03.2017 14:00 16,4 C 59 % 1010,6 hPa 0,0 l/m 12,6 km/h N 8,2 C 13,7 C 29,8 km/h
20.03.2017 15:00 16,0 C 60 % 1010,3 hPa 0,0 l/m 11,0 km/h N 8,2 C 13,8 C 31,4 km/h
20.03.2017 16:00 15,8 C 59 % 1010,1 hPa 0,0 l/m 8,9 km/h N 7,8 C 14,5 C 28,6 km/h
20.03.2017 17:00 14,9 C 63 % 1010,0 hPa 0,0 l/m 4,4 km/h N 7,8 C 14,4 C 19,3 km/h
20.03.2017 18:00 14,1 C 66 % 1010,0 hPa 0,0 l/m 2,8 km/h N 7,9 C 14,1 C 10,4 km/h
20.03.2017 19:00 12,9 C 68 % 1010,1 hPa 0,0 l/m 0,0 km/h N 7,1 C 12,9 C 1,2 km/h
20.03.2017 20:00 11,1 C 74 % 1010,2 hPa 0,0 l/m 0,0 km/h N 6,6 C 11,1 C 0,4 km/h
20.03.2017 21:00 9,6 C 77 % 1010,0 hPa 0,0 l/m 0,0 km/h N 5,8 C 9,6 C 0,4 km/h
20.03.2017 22:00 8,5 C 80 % 1009,8 hPa 0,0 l/m 0,0 km/h N 5,2 C 8,5 C 0,0 km/h
20.03.2017 23:00 7,5 C 82 % 1009,7 hPa 0,0 l/m 0,0 km/h N 4,6 C 7,5 C 0,8 km/h
21.03.2017 00:00 6,8 C 83 % 1009,6 hPa 0,0 l/m 0,0 km/h N 4,1 C 6,8 C 1,2 km/h
21.03.2017 01:00 6,2 C 83 % 1009,7 hPa 0,0 l/m 0,0 km/h N 3,6 C 6,2 C 0,8 km/h
21.03.2017 02:00 6,3 C 83 % 1009,4 hPa 0,0 l/m 0,0 km/h N 3,7 C 6,3 C 0,4 km/h
21.03.2017 03:00 6,7 C 83 % 1009,3 hPa 0,0 l/m 0,0 km/h N 4,0 C 6,7 C 1,6 km/h
21.03.2017 04:00 6,9 C 83 % 1009,6 hPa 0,0 l/m 0,0 km/h N 4,3 C 6,9 C 0,8 km/h
21.03.2017 05:00 6,8 C 83 % 1010,1 hPa 0,0 l/m 0,1 km/h N 4,1 C 6,8 C 3,2 km/h
21.03.2017 06:00 7,4 C 83 % 1010,4 hPa 0,0 l/m 0,2 km/h N 4,7 C 7,4 C 4,0 km/h
21.03.2017 07:00 11,0 C 81 % 1010,5 hPa 0,0 l/m 3,7 km/h N 7,8 C 11,0 C 14,9 km/h
21.03.2017 08:00 13,4 C 70 % 1010,8 hPa 0,0 l/m 7,0 km/h N 8,0 C 12,7 C 20,9 km/h
21.03.2017 09:00 14,3 C 64 % 1011,2 hPa 0,0 l/m 9,4 km/h N 7,5 C 12,7 C 24,1 km/h
21.03.2017 10:00 15,3 C 60 % 1011,2 hPa 0,0 l/m 10,8 km/h N 7,6 C 13,2 C 23,7 km/h
21.03.2017 11:00 16,4 C 57 % 1010,7 hPa 0,0 l/m 10,9 km/h N 7,7 C 14,4 C 24,9 km/h
21.03.2017 12:00 17,1 C 54 % 1010,1 hPa 0,0 l/m 11,7 km/h N 7,5 C 14,7 C 27,0 km/h
21.03.2017 13:00 16,7 C 54 % 1009,4 hPa 0,0 l/m 7,2 km/h N 7,4 C 16,2 C 19,7 km/h
21.03.2017 14:00 17,0 C 54 % 1009,0 hPa 0,0 l/m 3,0 km/h N 7,7 C 17,0 C 10,9 km/h
21.03.2017 15:00 17,0 C 57 % 1008,7 hPa 0,0 l/m 0,2 km/h N 8,4 C 17,0 C 2,0 km/h
21.03.2017 16:00 16,2 C 60 % 1008,5 hPa 0,0 l/m 0,1 km/h N 8,5 C 16,2 C 2,0 km/h
21.03.2017 17:00 15,6 C 62 % 1008,6 hPa 0,0 l/m 0,0 km/h N 8,4 C 15,6 C 2,0 km/h
21.03.2017 18:00 14,8 C 64 % 1008,6 hPa 0,0 l/m 0,0 km/h N 8,1 C 14,8 C 0,4 km/h
21.03.2017 19:00 13,0 C 69 % 1008,6 hPa 0,0 l/m 0,0 km/h N 7,4 C 13,0 C 0,0 km/h
21.03.2017 20:00 11,5 C 75 % 1008,8 hPa 0,0 l/m 0,0 km/h N 7,2 C 11,5 C 0,0 km/h
21.03.2017 21:00 10,4 C 79 % 1009,0 hPa 0,0 l/m 0,0 km/h N 6,8 C 10,4 C 0,0 km/h
21.03.2017 22:00 10,4 C 81 % 1009,3 hPa 0,0 l/m 0,0 km/h N 7,3 C 10,4 C 0,4 km/h
21.03.2017 23:00 10,2 C 81 % 1009,4 hPa 0,0 l/m 0,0 km/h N 7,0 C 10,2 C 0,4 km/h
22.03.2017 00:00 9,5 C 82 % 1009,6 hPa 0,0 l/m 0,0 km/h N 6,5 C 9,5 C 0,8 km/h
22.03.2017 01:00 10,0 C 82 % 1009,7 hPa 0,0 l/m 0,2 km/h N 7,0 C 10,0 C 2,8 km/h
22.03.2017 02:00 11,0 C 78 % 1009,5 hPa 0,0 l/m 0,8 km/h N 7,3 C 11,0 C 7,3 km/h
22.03.2017 03:00 11,7 C 74 % 1009,6 hPa 0,0 l/m 3,2 km/h N 7,1 C 11,7 C 11,7 km/h
22.03.2017 04:00 11,6 C 73 % 1009,8 hPa 0,0 l/m 2,8 km/h N 7,0 C 11,6 C 8,8 km/h
22.03.2017 05:00 11,3 C 76 % 1010,1 hPa 0,0 l/m 3,5 km/h N 7,1 C 11,3 C 13,3 km/h
22.03.2017 06:00 11,0 C 78 % 1010,6 hPa 0,0 l/m 2,5 km/h N 7,2 C 11,0 C 11,3 km/h
22.03.2017 07:00 10,9 C 78 % 1010,8 hPa 0,0 l/m 1,8 km/h N 7,2 C 10,9 C 8,4 km/h
22.03.2017 08:00 11,3 C 77 % 1011,0 hPa 0,0 l/m 2,6 km/h N 7,4 C 11,3 C 15,3 km/h
22.03.2017 09:00 11,2 C 78 % 1011,7 hPa 0,0 l/m 6,5 km/h N 7,5 C 10,9 C 17,3 km/h
22.03.2017 10:00 10,6 C 80 % 1012,4 hPa 0,0 l/m 3,8 km/h N 7,3 C 10,6 C 12,1 km/h
22.03.2017 11:00 10,2 C 81 % 1013,1 hPa 0,0 l/m 4,9 km/h N 7,1 C 10,2 C 14,9 km/h
22.03.2017 12:00 10,0 C 80 % 1013,5 hPa 0,0 l/m 5,1 km/h N 6,7 C 10,0 C 14,1 km/h
22.03.2017 13:00 9,8 C 80 % 1013,7 hPa 0,0 l/m 5,1 km/h N 6,6 C 9,8 C 14,5 km/h
22.03.2017 14:00 9,3 C 79 % 1014,1 hPa 0,0 l/m 4,8 km/h N 5,9 C 9,3 C 14,1 km/h
22.03.2017 15:00 8,6 C 79 % 1014,5 hPa 0,0 l/m 4,8 km/h N 5,2 C 8,6 C 16,9 km/h
22.03.2017 16:00 8,3 C 80 % 1014,5 hPa 0,0 l/m 3,5 km/h N 5,1 C 8,3 C 12,5 km/h
22.03.2017 17:00 8,3 C 80 % 1014,7 hPa 0,0 l/m 3,1 km/h N 5,0 C 8,3 C 12,9 km/h
22.03.2017 18:00 7,8 C 80 % 1015,2 hPa 0,0 l/m 1,6 km/h N 4,5 C 7,8 C 8,9 km/h
22.03.2017 19:00 7,5 C 80 % 1015,3 hPa 0,0 l/m 1,7 km/h N 4,3 C 7,5 C 7,2 km/h
22.03.2017 20:00 7,1 C 79 % 1015,5 hPa 0,0 l/m 1,8 km/h N 3,7 C 7,1 C 10,9 km/h
22.03.2017 21:00 6,7 C 79 % 1015,9 hPa 0,0 l/m 2,2 km/h N 3,3 C 6,7 C 11,7 km/h
22.03.2017 22:00 6,3 C 79 % 1016,1 hPa 0,0 l/m 0,8 km/h N 3,0 C 6,3 C 7,2 km/h
22.03.2017 23:00 6,2 C 80 % 1016,0 hPa 0,0 l/m 1,0 km/h N 3,0 C 6,2 C 6,0 km/h
23.03.2017 00:00 6,0 C 80 % 1015,7 hPa 0,0 l/m 0,4 km/h N 2,8 C 6,0 C 4,4 km/h
23.03.2017 01:00 5,9 C 81 % 1015,5 hPa 0,0 l/m 0,0 km/h N 2,9 C 5,9 C 1,2 km/h
23.03.2017 02:00 5,7 C 81 % 1015,2 hPa 0,0 l/m 0,0 km/h N 2,7 C 5,7 C 1,6 km/h
23.03.2017 03:00 5,3 C 82 % 1014,9 hPa 0,0 l/m 0,0 km/h N 2,4 C 5,3 C 0,4 km/h
23.03.2017 04:00 4,8 C 83 % 1014,9 hPa 0,0 l/m 0,0 km/h N 2,1 C 4,8 C 0,4 km/h
23.03.2017 05:00 4,6 C 83 % 1014,9 hPa 0,0 l/m 0,0 km/h N 2,0 C 4,6 C 0,0 km/h
23.03.2017 06:00 5,0 C 83 % 1015,2 hPa 0,0 l/m 0,0 km/h N 2,3 C 5,0 C 0,0 km/h
23.03.2017 07:00 5,6 C 83 % 1015,5 hPa 0,0 l/m 0,0 km/h N 3,0 C 5,6 C 1,2 km/h
23.03.2017 08:00 6,5 C 83 % 1015,8 hPa 0,0 l/m 0,0 km/h N 3,9 C 6,5 C 1,6 km/h
23.03.2017 09:00 7,3 C 83 % 1016,0 hPa 0,0 l/m 0,0 km/h N 4,5 C 7,3 C 2,0 km/h
23.03.2017 10:00 8,0 C 81 % 1016,3 hPa 0,0 l/m 0,4 km/h N 5,0 C 8,0 C 3,2 km/h
23.03.2017 11:00 9,3 C 80 % 1016,4 hPa 0,0 l/m 3,9 km/h N 5,9 C 9,0 C 12,9 km/h
23.03.2017 12:00 9,4 C 78 % 1016,7 hPa 0,0 l/m 8,2 km/h N 5,8 C 8,1 C 19,3 km/h
23.03.2017 13:00 9,4 C 78 % 1016,8 hPa 0,0 l/m 8,0 km/h N 5,6 C 8,2 C 19,3 km/h
23.03.2017 14:00 9,4 C 77 % 1016,8 hPa 0,0 l/m 8,0 km/h N 5,6 C 8,2 C 19,3 km/h
23.03.2017 15:00 10,0 C 76 % 1016,5 hPa 0,0 l/m 4,8 km/h N 5,9 C 10,0 C 16,9 km/h
23.03.2017 16:00 10,6 C 75 % 1016,5 hPa 0,0 l/m 2,4 km/h N 6,4 C 10,6 C 10,5 km/h
23.03.2017 17:00 10,6 C 75 % 1016,6 hPa 0,0 l/m 2,4 km/h N 6,3 C 10,6 C 10,5 km/h
23.03.2017 18:00 9,8 C 77 % 1017,1 hPa 0,0 l/m 0,8 km/h N 5,8 C 9,8 C 8,9 km/h
23.03.2017 19:00 8,6 C 80 % 1017,7 hPa 0,0 l/m 1,6 km/h N 5,3 C 8,6 C 7,2 km/h
23.03.2017 20:00 7,9 C 81 % 1018,3 hPa 0,0 l/m 0,0 km/h N 4,8 C 7,9 C 4,8 km/h
23.03.2017 21:00 6,7 C 81 % 1018,7 hPa 0,0 l/m 0,0 km/h N 3,6 C 6,7 C 0,0 km/h
23.03.2017 22:00 5,3 C 82 % 1019,3 hPa 0,0 l/m 0,0 km/h N 2,4 C 5,3 C 0,0 km/h
23.03.2017 23:00 4,5 C 83 % 1019,7 hPa 0,0 l/m 0,0 km/h N 1,9 C 4,5 C 0,0 km/h
24.03.2017 00:00 4,4 C 83 % 1019,8 hPa 0,0 l/m 0,0 km/h N 1,8 C 4,4 C 1,6 km/h
24.03.2017 01:00 6,8 C 83 % 1020,0 hPa 0,0 l/m 3,2 km/h N 4,1 C 6,8 C 12,9 km/h
24.03.2017 02:00 7,4 C 83 % 1020,2 hPa 0,0 l/m 4,8 km/h N 4,8 C 7,4 C 14,5 km/h
24.03.2017 03:00 7,4 C 83 % 1020,6 hPa 0,0 l/m 4,0 km/h N 4,7 C 7,4 C 16,1 km/h
24.03.2017 04:00 7,6 C 83 % 1021,2 hPa 0,0 l/m 4,0 km/h N 4,9 C 7,6 C 16,1 km/h
24.03.2017 05:00 8,0 C 82 % 1022,1 hPa 0,0 l/m 4,9 km/h N 5,1 C 8,0 C 15,6 km/h
24.03.2017 06:00 8,1 C 82 % 1023,2 hPa 0,0 l/m 7,4 km/h N 5,1 C 7,2 C 19,3 km/h
24.03.2017 07:00 8,0 C 82 % 1024,2 hPa 0,0 l/m 5,1 km/h N 5,1 C 8,0 C 14,5 km/h
24.03.2017 08:00 8,2 C 82 % 1024,8 hPa 0,0 l/m 7,4 km/h N 5,2 C 7,3 C 19,7 km/h
24.03.2017 09:00 8,7 C 80 % 1025,3 hPa 0,0 l/m 8,7 km/h N 5,4 C 7,0 C 20,5 km/h
24.03.2017 10:00 9,3 C 78 % 1025,7 hPa 0,0 l/m 7,6 km/h N 5,6 C 8,3 C 18,1 km/h
24.03.2017 11:00 9,6 C 77 % 1026,1 hPa 0,0 l/m 8,1 km/h N 5,8 C 8,4 C 20,1 km/h
24.03.2017 12:00 10,0 C 76 % 1026,0 hPa 0,0 l/m 6,8 km/h N 6,0 C 9,5 C 18,1 km/h
24.03.2017 13:00 10,3 C 75 % 1026,2 hPa 0,0 l/m 6,7 km/h N 6,1 C 10,0 C 17,7 km/h
24.03.2017 14:00 10,6 C 75 % 1026,0 hPa 0,0 l/m 6,8 km/h N 6,3 C 10,2 C 18,1 km/h
24.03.2017 15:00 11,2 C 71 % 1026,0 hPa 0,0 l/m 7,4 km/h N 6,1 C 10,5 C 18,9 km/h
24.03.2017 16:00 11,2 C 71 % 1025,9 hPa 0,0 l/m 6,2 km/h N 6,2 C 11,1 C 15,7 km/h
24.03.2017 17:00 10,5 C 74 % 1026,1 hPa 0,0 l/m 4,3 km/h N 6,1 C 10,5 C 14,5 km/h
24.03.2017 18:00 9,7 C 76 % 1026,4 hPa 0,0 l/m 0,9 km/h N 5,7 C 9,7 C 9,6 km/h
24.03.2017 19:00 9,8 C 75 % 1027,2 hPa 0,0 l/m 4,2 km/h N 5,5 C 9,8 C 16,5 km/h
24.03.2017 20:00 9,0 C 70 % 1028,2 hPa 0,0 l/m 5,3 km/h N 3,7 C 8,9 C 19,7 km/h
24.03.2017 21:00 8,2 C 70 % 1029,0 hPa 0,0 l/m 5,1 km/h N 3,0 C 8,2 C 18,9 km/h
24.03.2017 22:00 7,6 C 69 % 1029,3 hPa 0,0 l/m 4,3 km/h N 2,1 C 7,6 C 13,7 km/h
24.03.2017 23:00 6,6 C 70 % 1029,4 hPa 0,0 l/m 1,5 km/h N 1,5 C 6,6 C 9,6 km/h
25.03.2017 00:00 6,0 C 71 % 1029,2 hPa 0,0 l/m 1,8 km/h N 1,2 C 6,0 C 7,6 km/h
25.03.2017 01:00 5,6 C 73 % 1028,9 hPa 0,0 l/m 1,6 km/h N 1,1 C 5,6 C 8,8 km/h
25.03.2017 02:00 5,5 C 73 % 1028,6 hPa 0,0 l/m 2,7 km/h N 1,0 C 5,5 C 10,1 km/h
25.03.2017 03:00 5,2 C 74 % 1028,4 hPa 0,0 l/m 4,3 km/h N 0,9 C 5,2 C 12,1 km/h
25.03.2017 04:00 5,1 C 73 % 1028,2 hPa 0,0 l/m 2,2 km/h N 0,7 C 5,1 C 9,3 km/h
25.03.2017 05:00 4,8 C 74 % 1028,0 hPa 0,0 l/m 2,7 km/h N 0,5 C 4,8 C 10,5 km/h
25.03.2017 06:00 4,5 C 76 % 1028,3 hPa 0,0 l/m 2,5 km/h N 0,6 C 4,5 C 8,4 km/h
25.03.2017 07:00 5,4 C 75 % 1028,4 hPa 0,0 l/m 3,2 km/h N 1,3 C 5,4 C 10,1 km/h
25.03.2017 08:00 6,7 C 72 % 1028,4 hPa 0,0 l/m 2,7 km/h N 1,9 C 6,7 C 10,9 km/h
25.03.2017 09:00 8,2 C 67 % 1028,2 hPa 0,0 l/m 2,3 km/h N 2,4 C 8,2 C 10,9 km/h
25.03.2017 10:00 9,7 C 63 % 1028,0 hPa 0,0 l/m 2,0 km/h N 3,1 C 9,7 C 10,9 km/h
25.03.2017 11:00 10,9 C 59 % 1027,2 hPa 0,0 l/m 1,6 km/h N 3,1 C 10,9 C 10,1 km/h
25.03.2017 12:00 12,1 C 57 % 1026,3 hPa 0,0 l/m 1,3 km/h N 3,7 C 12,1 C 10,1 km/h
25.03.2017 13:00 12,8 C 49 % 1025,1 hPa 0,0 l/m 2,8 km/h N 2,3 C 12,8 C 12,1 km/h
25.03.2017 14:00 13,5 C 42 % 1024,1 hPa 0,0 l/m 2,8 km/h N 0,7 C 13,5 C 13,7 km/h
25.03.2017 15:00 13,7 C 41 % 1023,4 hPa 0,0 l/m 1,7 km/h N 0,8 C 13,7 C 12,1 km/h
25.03.2017 16:00 13,3 C 43 % 1022,7 hPa 0,0 l/m 1,5 km/h N 1,0 C 13,3 C 10,5 km/h
25.03.2017 17:00 12,7 C 44 % 1022,2 hPa 0,0 l/m 1,6 km/h N 0,8 C 12,7 C 8,9 km/h
25.03.2017 18:00 11,4 C 45 % 1021,7 hPa 0,0 l/m 0,1 km/h N -0,2 C 11,4 C 1,2 km/h
25.03.2017 19:00 9,1 C 51 % 1021,3 hPa 0,0 l/m 0,0 km/h N -0,5 C 9,1 C 0,0 km/h
25.03.2017 20:00 6,6 C 58 % 1021,3 hPa 0,0 l/m 0,0 km/h N -1,1 C 6,6 C 0,0 km/h
25.03.2017 21:00 5,3 C 64 % 1021,3 hPa 0,0 l/m 0,1 km/h N -0,9 C 5,3 C 2,4 km/h
25.03.2017 22:00 7,1 C 59 % 1021,3 hPa 0,0 l/m 0,2 km/h N -0,5 C 7,1 C 3,6 km/h
25.03.2017 23:00 6,8 C 61 % 1020,9 hPa 0,0 l/m 0,0 km/h N -0,3 C 6,8 C 2,0 km/h
26.03.2017 00:00 7,1 C 63 % 1020,8 hPa 0,0 l/m 1,8 km/h N 0,4 C 7,1 C 10,9 km/h
26.03.2017 01:00 7,8 C 59 % 1020,7 hPa 0,0 l/m 2,7 km/h N 0,3 C 7,8 C 12,1 km/h
26.03.2017 03:00 7,4 C 61 % 1020,5 hPa 0,0 l/m 2,3 km/h N 0,3 C 7,4 C 10,1 km/h
26.03.2017 04:00 6,6 C 63 % 1020,6 hPa 0,0 l/m 2,3 km/h N 0,1 C 6,6 C 8,5 km/h
26.03.2017 05:00 5,8 C 66 % 1021,0 hPa 0,0 l/m 1,3 km/h N -0,1 C 5,8 C 8,0 km/h
26.03.2017 06:00 5,0 C 69 % 1021,9 hPa 0,0 l/m 2,4 km/h N -0,2 C 4,9 C 12,5 km/h
26.03.2017 07:00 4,5 C 71 % 1022,8 hPa 0,0 l/m 2,3 km/h N -0,4 C 4,5 C 11,7 km/h
26.03.2017 08:00 4,6 C 72 % 1023,1 hPa 0,0 l/m 2,5 km/h N -0,1 C 4,6 C 10,5 km/h
26.03.2017 09:00 6,0 C 64 % 1023,4 hPa 0,0 l/m 7,5 km/h N -0,4 C 5,1 C 20,9 km/h
26.03.2017 10:00 7,3 C 56 % 1023,6 hPa 0,0 l/m 6,5 km/h N -0,8 C 7,0 C 19,3 km/h
26.03.2017 11:00 8,5 C 52 % 1024,0 hPa 0,0 l/m 5,7 km/h N -0,9 C 8,3 C 19,3 km/h
26.03.2017 12:00 9,2 C 47 % 1024,2 hPa 0,0 l/m 7,5 km/h N -1,6 C 8,3 C 22,1 km/h
26.03.2017 13:00 9,6 C 46 % 1024,0 hPa 0,0 l/m 7,0 km/h N -1,3 C 9,1 C 19,3 km/h
26.03.2017 14:00 10,3 C 45 % 1023,6 hPa 0,0 l/m 6,2 km/h N -1,3 C 10,1 C 21,3 km/h
26.03.2017 15:00 10,6 C 39 % 1023,3 hPa 0,0 l/m 7,8 km/h N -2,7 C 9,7 C 21,3 km/h
26.03.2017 16:00 10,8 C 38 % 1023,6 hPa 0,0 l/m 7,8 km/h N -3,0 C 9,8 C 22,1 km/h
26.03.2017 17:00 10,6 C 40 % 1023,7 hPa 0,0 l/m 4,7 km/h N -2,4 C 10,5 C 19,3 km/h
26.03.2017 18:00 9,9 C 42 % 1024,1 hPa 0,0 l/m 4,1 km/h N -2,5 C 9,9 C 15,7 km/h
26.03.2017 19:00 8,9 C 45 % 1024,6 hPa 0,0 l/m 1,8 km/h N -2,4 C 8,9 C 8,4 km/h
26.03.2017 20:00 7,1 C 49 % 1025,3 hPa 0,0 l/m 0,0 km/h N -2,8 C 7,1 C 0,4 km/h
26.03.2017 21:00 5,2 C 56 % 1025,8 hPa 0,0 l/m 0,0 km/h N -2,8 C 5,2 C 0,0 km/h
26.03.2017 22:00 3,6 C 61 % 1026,3 hPa 0,0 l/m 0,0 km/h N -3,2 C 3,6 C 0,4 km/h
26.03.2017 23:00 2,7 C 67 % 1026,6 hPa 0,0 l/m 0,0 km/h N -2,7 C 2,7 C 0,8 km/h
Min-Datum _ 26.03.17 26.03.17 20.03.17 - 20.03.17 - 26.03.17 26.03.17 20.03.17
_ Min-Zeit 23:15 15:45 00:30 - 18:45 - 15:45 23:15 19:15
Minimum _ 2,4 C 36 % 1006,9 hPa - 0,0 km/h - -3,8 C 2,5 C 0,0 km/h
Max-Datum _ 21.03.17 21.03.17 24.03.17 20.03.17 20.03.17 - 20.03.17 21.03.17 20.03.17
_ Max-Zeit 12:30 00:30 22:45 00:00 01:30 - 00:00 14:45 00:15
Maximum _ 17,2 C 83 % 1029,4 hPa 0,0 l/m 15,3 km/h
N
- 9,7 C 17,2 C 41,8 km/h
N
Durchschnitt _ 9,5 C 70 % 1017,5 hPa #0,0 l/m 3,5 km/h N 4,2 C 9,2 C 11,5 km/h